createdAt,value
2023-01-27T00:09:54.737Z,37.4
2023-01-27T00:25:07.958Z,39.9
2023-01-27T00:40:17.559Z,34
2023-01-27T00:55:26.258Z,36.4
2023-01-27T01:10:35.907Z,35.7
2023-01-27T01:25:48.189Z,33.4
2023-01-27T01:40:57.865Z,32.4
2023-01-27T01:56:07.401Z,25.6
2023-01-27T02:11:16.535Z,33.4
2023-01-27T02:26:25.858Z,30.4
2023-01-27T02:41:34.665Z,26.8
2023-01-27T02:56:45.357Z,24.3
2023-01-27T03:11:54.732Z,20.9
2023-01-27T03:27:04.804Z,25.7
2023-01-27T03:42:14.595Z,22.3
2023-01-27T03:57:24.332Z,18.9
2023-01-27T04:12:34.051Z,21.8
2023-01-27T04:27:43.880Z,18.2
2023-01-27T04:42:53.057Z,17.5
2023-01-27T04:58:03.162Z,10.5
2023-01-27T05:13:12.880Z,8.6
2023-01-27T05:28:22.507Z,8.8
2023-01-27T05:43:32.100Z,10.1
2023-01-27T05:58:41.488Z,7.5
2023-01-27T06:13:51.017Z,4.5
2023-01-27T06:29:00.263Z,4.7
2023-01-27T06:44:08.945Z,8.5
2023-01-27T06:59:18.919Z,6.9
2023-01-27T07:14:28.028Z,3.3
2023-01-27T07:29:37.448Z,2.8
2023-01-27T07:44:48.157Z,4.4
2023-01-27T07:59:58.185Z,4.6
2023-01-27T08:15:07.510Z,2.5
2023-01-27T08:30:17.205Z,4.9
2023-01-27T08:45:26.796Z,3.1
2023-01-27T09:00:36.136Z,2.3
2023-01-27T09:15:48.476Z,4.1
2023-01-27T09:30:57.966Z,4
2023-01-27T09:46:08.304Z,2.5
2023-01-27T10:01:18.123Z,4
2023-01-27T10:16:28.780Z,2.4
2023-01-27T10:31:38.903Z,4.8
2023-01-27T10:46:49.536Z,3.5
2023-01-27T11:01:59.184Z,2.6
2023-01-27T11:17:08.467Z,2.6
2023-01-27T11:32:18.553Z,2.1
2023-01-27T11:47:28.244Z,4.9
2023-01-27T12:02:38.061Z,2.8
2023-01-27T12:17:47.396Z,2.8
2023-01-27T12:32:57.741Z,3.5
2023-01-27T12:48:07.422Z,3.8
2023-01-27T13:03:17.011Z,4.6
2023-01-27T13:18:26.894Z,3.1
2023-01-27T13:33:36.454Z,4.6
2023-01-27T13:48:45.871Z,1.8
2023-01-27T14:03:55.346Z,3.9
2023-01-27T14:19:04.400Z,5.3
2023-01-27T14:34:14.178Z,2.6
2023-01-27T14:50:01.059Z,4.3
2023-01-27T15:05:12.732Z,3.6
2023-01-27T15:20:22.864Z,4.3
2023-01-27T15:35:32.127Z,2.8
2023-01-27T15:50:41.184Z,3.9
2023-01-27T16:05:50.440Z,3
2023-01-27T16:20:59.908Z,5.8
2023-01-27T16:36:09.542Z,6.7
2023-01-27T16:51:21.601Z,3.1
2023-01-27T17:06:31.857Z,7.2
2023-01-27T17:21:41.745Z,2.8
2023-01-27T17:36:50.787Z,3.8
2023-01-27T17:52:00.637Z,3.7
2023-01-27T18:07:09.873Z,10.5
2023-01-27T18:22:18.503Z,3.1
2023-01-27T18:37:28.192Z,3.9
2023-01-27T18:52:37.274Z,3.2
2023-01-27T19:07:47.543Z,3.8
2023-01-27T19:22:57.139Z,3.7
2023-01-27T19:38:06.353Z,4
2023-01-27T19:53:16.089Z,3.2
2023-01-27T20:08:25.445Z,2.4
2023-01-27T20:23:34.738Z,6.9
2023-01-27T20:38:44.266Z,3.5
2023-01-27T20:53:53.729Z,4.5
2023-01-27T21:09:03.044Z,3.3
2023-01-27T21:24:12.978Z,4.7
2023-01-27T21:39:22.277Z,2.8
2023-01-27T21:54:35.332Z,6
2023-01-27T22:09:44.766Z,3.4
2023-01-27T22:24:54.457Z,6.5
2023-01-27T22:40:03.077Z,7.6
2023-01-27T22:55:13.978Z,2.3
2023-01-27T23:10:24.328Z,3.2
2023-01-27T23:25:33.524Z,4.4
2023-01-27T23:40:44.714Z,4.9
2023-01-27T23:55:53.853Z,6.1
